sensor_id;sensor_type;location;lat;lon;timestamp;temperature;humidity
4856;DHT22;2442;48.676;7.986;2023-12-22T00:02:04;8.90;99.90
4856;DHT22;2442;48.676;7.986;2023-12-22T00:04:30;9.00;99.90
4856;DHT22;2442;48.676;7.986;2023-12-22T00:06:57;9.10;99.90
4856;DHT22;2442;48.676;7.986;2023-12-22T00:09:23;9.10;99.90
4856;DHT22;2442;48.676;7.986;2023-12-22T00:11:50;9.20;99.90
4856;DHT22;2442;48.676;7.986;2023-12-22T00:14:17;9.20;99.90
4856;DHT22;2442;48.676;7.986;2023-12-22T00:16:43;9.20;99.90
4856;DHT22;2442;48.676;7.986;2023-12-22T00:19:12;9.00;99.90
4856;DHT22;2442;48.676;7.986;2023-12-22T00:21:38;9.10;99.90
4856;DHT22;2442;48.676;7.986;2023-12-22T00:24:05;8.90;99.90
4856;DHT22;2442;48.676;7.986;2023-12-22T00:26:32;8.80;99.90
4856;DHT22;2442;48.676;7.986;2023-12-22T00:28:58;8.80;99.90
4856;DHT22;2442;48.676;7.986;2023-12-22T00:31:25;8.80;99.90
4856;DHT22;2442;48.676;7.986;2023-12-22T00:33:52;8.70;99.90
4856;DHT22;2442;48.676;7.986;2023-12-22T00:38:49;8.70;99.90
4856;DHT22;2442;48.676;7.986;2023-12-22T00:41:16;8.70;99.90
4856;DHT22;2442;48.676;7.986;2023-12-22T00:43:43;8.80;99.90
4856;DHT22;2442;48.676;7.986;2023-12-22T00:46:10;8.90;99.90
4856;DHT22;2442;48.676;7.986;2023-12-22T00:48:36;9.00;99.90
4856;DHT22;2442;48.676;7.986;2023-12-22T00:51:03;9.10;99.90
4856;DHT22;2442;48.676;7.986;2023-12-22T00:53:31;9.20;99.90
4856;DHT22;2442;48.676;7.986;2023-12-22T00:56:00;9.40;99.90
4856;DHT22;2442;48.676;7.986;2023-12-22T00:58:28;9.40;99.90
4856;DHT22;2442;48.676;7.986;2023-12-22T01:00:54;9.50;99.90
4856;DHT22;2442;48.676;7.986;2023-12-22T01:03:21;9.60;99.90
4856;DHT22;2442;48.676;7.986;2023-12-22T01:05:48;9.50;99.90
4856;DHT22;2442;48.676;7.986;2023-12-22T01:08:14;9.60;99.90
4856;DHT22;2442;48.676;7.986;2023-12-22T01:47:29;8.10;99.90
4856;DHT22;2442;48.676;7.986;2023-12-22T01:49:55;8.00;99.90
4856;DHT22;2442;48.676;7.986;2023-12-22T01:52:22;8.00;99.90
4856;DHT22;2442;48.676;7.986;2023-12-22T01:54:49;8.00;99.90
4856;DHT22;2442;48.676;7.986;2023-12-22T01:57:16;8.00;99.90
4856;DHT22;2442;48.676;7.986;2023-12-22T01:59:45;8.10;99.90
4856;DHT22;2442;48.676;7.986;2023-12-22T02:02:12;8.20;99.90
4856;DHT22;2442;48.676;7.986;2023-12-22T02:04:40;8.20;99.90
4856;DHT22;2442;48.676;7.986;2023-12-22T02:07:07;8.20;99.90
4856;DHT22;2442;48.676;7.986;2023-12-22T02:09:36;8.20;99.90
4856;DHT22;2442;48.676;7.986;2023-12-22T02:12:02;8.30;99.90
4856;DHT22;2442;48.676;7.986;2023-12-22T02:14:29;8.30;99.90
4856;DHT22;2442;48.676;7.986;2023-12-22T02:16:59;8.50;99.90
4856;DHT22;2442;48.676;7.986;2023-12-22T02:19:33;8.60;99.90
4856;DHT22;2442;48.676;7.986;2023-12-22T02:22:05;8.50;99.90
4856;DHT22;2442;48.676;7.986;2023-12-22T02:24:33;8.30;99.90
4856;DHT22;2442;48.676;7.986;2023-12-22T02:29:26;7.40;99.90
4856;DHT22;2442;48.676;7.986;2023-12-22T02:31:53;7.20;99.90
4856;DHT22;2442;48.676;7.986;2023-12-22T02:34:22;7.10;99.90
4856;DHT22;2442;48.676;7.986;2023-12-22T02:36:49;7.20;99.90
4856;DHT22;2442;48.676;7.986;2023-12-22T02:39:18;7.20;99.90
4856;DHT22;2442;48.676;7.986;2023-12-22T02:41:47;7.20;99.90
4856;DHT22;2442;48.676;7.986;2023-12-22T03:08:52;8.30;99.90
4856;DHT22;2442;48.676;7.986;2023-12-22T03:11:19;8.30;99.90
4856;DHT22;2442;48.676;7.986;2023-12-22T03:13:47;8.30;99.90
4856;DHT22;2442;48.676;7.986;2023-12-22T03:16:14;8.30;99.90
4856;DHT22;2442;48.676;7.986;2023-12-22T03:18:41;8.30;99.90
4856;DHT22;2442;48.676;7.986;2023-12-22T03:21:08;8.30;99.90
4856;DHT22;2442;48.676;7.986;2023-12-22T03:23:42;8.40;99.90
4856;DHT22;2442;48.676;7.986;2023-12-22T03:26:10;8.50;99.90
4856;DHT22;2442;48.676;7.986;2023-12-22T03:28:36;8.50;99.90
4856;DHT22;2442;48.676;7.986;2023-12-22T03:31:03;8.50;99.90
4856;DHT22;2442;48.676;7.986;2023-12-22T03:33:34;8.70;99.90
4856;DHT22;2442;48.676;7.986;2023-12-22T03:36:02;8.70;99.90
4856;DHT22;2442;48.676;7.986;2023-12-22T03:38:28;8.90;99.90
4856;DHT22;2442;48.676;7.986;2023-12-22T03:40:55;8.80;99.90
4856;DHT22;2442;48.676;7.986;2023-12-22T03:43:23;8.80;99.90
4856;DHT22;2442;48.676;7.986;2023-12-22T03:45:50;8.60;99.90
4856;DHT22;2442;48.676;7.986;2023-12-22T03:48:16;8.60;99.90
4856;DHT22;2442;48.676;7.986;2023-12-22T03:50:43;8.50;99.90
4856;DHT22;2442;48.676;7.986;2023-12-22T03:53:10;8.50;99.90
4856;DHT22;2442;48.676;7.986;2023-12-22T03:55:38;8.40;99.90
4856;DHT22;2442;48.676;7.986;2023-12-22T03:58:05;8.40;99.90
4856;DHT22;2442;48.676;7.986;2023-12-22T04:00:34;8.40;99.90
4856;DHT22;2442;48.676;7.986;2023-12-22T04:03:00;8.30;99.90
4856;DHT22;2442;48.676;7.986;2023-12-22T04:05:27;8.20;99.90
4856;DHT22;2442;48.676;7.986;2023-12-22T04:07:54;8.20;99.90
4856;DHT22;2442;48.676;7.986;2023-12-22T04:10:20;8.20;99.90
4856;DHT22;2442;48.676;7.986;2023-12-22T04:12:47;8.20;99.90
4856;DHT22;2442;48.676;7.986;2023-12-22T04:15:14;8.30;99.90
4856;DHT22;2442;48.676;7.986;2023-12-22T04:17:42;8.30;99.90
4856;DHT22;2442;48.676;7.986;2023-12-22T04:20:08;8.40;99.90
4856;DHT22;2442;48.676;7.986;2023-12-22T04:22:35;8.50;99.90
4856;DHT22;2442;48.676;7.986;2023-12-22T04:25:02;8.60;99.90
4856;DHT22;2442;48.676;7.986;2023-12-22T04:27:28;8.50;99.90
4856;DHT22;2442;48.676;7.986;2023-12-22T04:29:55;8.90;99.90
4856;DHT22;2442;48.676;7.986;2023-12-22T04:32:21;8.90;99.90
4856;DHT22;2442;48.676;7.986;2023-12-22T04:34:49;8.90;99.90
4856;DHT22;2442;48.676;7.986;2023-12-22T04:37:16;8.90;99.90
4856;DHT22;2442;48.676;7.986;2023-12-22T04:39:43;8.90;99.90
4856;DHT22;2442;48.676;7.986;2023-12-22T04:42:09;9.00;99.90
4856;DHT22;2442;48.676;7.986;2023-12-22T04:44:36;9.10;99.90
4856;DHT22;2442;48.676;7.986;2023-12-22T04:47:03;9.00;99.90
4856;DHT22;2442;48.676;7.986;2023-12-22T04:49:29;9.00;99.90
4856;DHT22;2442;48.676;7.986;2023-12-22T04:51:57;9.00;99.90
4856;DHT22;2442;48.676;7.986;2023-12-22T04:54:24;9.10;99.90
4856;DHT22;2442;48.676;7.986;2023-12-22T04:56:51;9.10;99.90
4856;DHT22;2442;48.676;7.986;2023-12-22T04:59:17;9.10;99.90
4856;DHT22;2442;48.676;7.986;2023-12-22T05:01:44;9.00;99.90
4856;DHT22;2442;48.676;7.986;2023-12-22T05:04:11;9.10;99.90
4856;DHT22;2442;48.676;7.986;2023-12-22T05:06:38;9.10;99.90
4856;DHT22;2442;48.676;7.986;2023-12-22T05:09:06;9.10;99.90
4856;DHT22;2442;48.676;7.986;2023-12-22T05:11:32;9.10;99.90
4856;DHT22;2442;48.676;7.986;2023-12-22T05:13:59;9.10;99.90
4856;DHT22;2442;48.676;7.986;2023-12-22T05:16:26;9.10;99.90
4856;DHT22;2442;48.676;7.986;2023-12-22T05:18:53;9.10;99.90
4856;DHT22;2442;48.676;7.986;2023-12-22T05:21:20;9.10;99.90
4856;DHT22;2442;48.676;7.986;2023-12-22T05:23:46;9.00;99.90
4856;DHT22;2442;48.676;7.986;2023-12-22T05:26:17;9.00;99.90
4856;DHT22;2442;48.676;7.986;2023-12-22T05:28:44;8.90;99.90
4856;DHT22;2442;48.676;7.986;2023-12-22T05:31:11;8.90;99.90
4856;DHT22;2442;48.676;7.986;2023-12-22T05:33:37;8.90;99.90
4856;DHT22;2442;48.676;7.986;2023-12-22T05:36:04;8.90;99.90
4856;DHT22;2442;48.676;7.986;2023-12-22T05:38:31;8.80;99.90
4856;DHT22;2442;48.676;7.986;2023-12-22T05:40:57;8.90;99.90
4856;DHT22;2442;48.676;7.986;2023-12-22T05:43:25;8.90;99.90
4856;DHT22;2442;48.676;7.986;2023-12-22T05:45:52;8.80;99.90
4856;DHT22;2442;48.676;7.986;2023-12-22T05:48:19;8.80;99.90
4856;DHT22;2442;48.676;7.986;2023-12-22T05:50:47;8.90;99.90
4856;DHT22;2442;48.676;7.986;2023-12-22T05:53:13;8.90;99.90
4856;DHT22;2442;48.676;7.986;2023-12-22T05:55:40;8.90;99.90
4856;DHT22;2442;48.676;7.986;2023-12-22T05:58:07;8.90;99.90
4856;DHT22;2442;48.676;7.986;2023-12-22T06:00:35;8.90;99.90
4856;DHT22;2442;48.676;7.986;2023-12-22T06:03:02;8.90;99.90
4856;DHT22;2442;48.676;7.986;2023-12-22T06:05:29;8.90;99.90
4856;DHT22;2442;48.676;7.986;2023-12-22T06:07:55;9.00;99.90
4856;DHT22;2442;48.676;7.986;2023-12-22T06:10:22;9.00;99.90
4856;DHT22;2442;48.676;7.986;2023-12-22T06:12:49;9.00;99.90
4856;DHT22;2442;48.676;7.986;2023-12-22T06:15:15;9.10;99.90
4856;DHT22;2442;48.676;7.986;2023-12-22T06:17:43;9.10;99.90
4856;DHT22;2442;48.676;7.986;2023-12-22T06:20:10;9.10;99.90
4856;DHT22;2442;48.676;7.986;2023-12-22T06:22:37;9.10;99.90
4856;DHT22;2442;48.676;7.986;2023-12-22T06:25:04;9.10;99.90
4856;DHT22;2442;48.676;7.986;2023-12-22T06:27:32;9.00;99.90
4856;DHT22;2442;48.676;7.986;2023-12-22T06:29:59;9.00;99.90
4856;DHT22;2442;48.676;7.986;2023-12-22T06:32:26;9.00;99.90
4856;DHT22;2442;48.676;7.986;2023-12-22T06:34:54;9.00;99.90
4856;DHT22;2442;48.676;7.986;2023-12-22T06:37:20;8.90;99.90
4856;DHT22;2442;48.676;7.986;2023-12-22T06:39:47;9.00;99.90
4856;DHT22;2442;48.676;7.986;2023-12-22T06:42:13;8.90;99.90
4856;DHT22;2442;48.676;7.986;2023-12-22T06:44:41;9.00;99.90
4856;DHT22;2442;48.676;7.986;2023-12-22T06:47:08;9.10;99.90
4856;DHT22;2442;48.676;7.986;2023-12-22T06:49:34;9.10;99.90
4856;DHT22;2442;48.676;7.986;2023-12-22T06:52:02;9.10;99.90
4856;DHT22;2442;48.676;7.986;2023-12-22T06:54:29;9.10;99.90
4856;DHT22;2442;48.676;7.986;2023-12-22T06:56:56;9.10;99.90
4856;DHT22;2442;48.676;7.986;2023-12-22T06:59:22;9.10;99.90
4856;DHT22;2442;48.676;7.986;2023-12-22T07:01:49;9.10;99.90
4856;DHT22;2442;48.676;7.986;2023-12-22T07:04:16;9.10;99.90
4856;DHT22;2442;48.676;7.986;2023-12-22T07:06:42;9.10;99.90
4856;DHT22;2442;48.676;7.986;2023-12-22T07:09:30;9.20;99.90
4856;DHT22;2442;48.676;7.986;2023-12-22T07:11:57;9.30;99.90
4856;DHT22;2442;48.676;7.986;2023-12-22T07:14:23;9.30;99.90
4856;DHT22;2442;48.676;7.986;2023-12-22T07:16:50;9.30;99.90
4856;DHT22;2442;48.676;7.986;2023-12-22T07:19:17;9.30;99.90
4856;DHT22;2442;48.676;7.986;2023-12-22T07:21:44;9.30;99.90
4856;DHT22;2442;48.676;7.986;2023-12-22T07:24:10;9.30;99.90
4856;DHT22;2442;48.676;7.986;2023-12-22T07:26:38;9.30;99.90
4856;DHT22;2442;48.676;7.986;2023-12-22T07:31:32;9.20;99.90
4856;DHT22;2442;48.676;7.986;2023-12-22T07:33:58;9.30;99.90
4856;DHT22;2442;48.676;7.986;2023-12-22T07:36:25;9.30;99.90
4856;DHT22;2442;48.676;7.986;2023-12-22T07:38:51;9.30;99.90
4856;DHT22;2442;48.676;7.986;2023-12-22T07:41:20;9.40;99.90
4856;DHT22;2442;48.676;7.986;2023-12-22T07:43:48;9.40;99.90
4856;DHT22;2442;48.676;7.986;2023-12-22T07:46:17;9.40;99.90
4856;DHT22;2442;48.676;7.986;2023-12-22T07:48:47;9.40;99.90
4856;DHT22;2442;48.676;7.986;2023-12-22T07:51:14;9.40;99.90
4856;DHT22;2442;48.676;7.986;2023-12-22T07:53:40;9.30;99.90
4856;DHT22;2442;48.676;7.986;2023-12-22T07:56:07;9.40;99.90
4856;DHT22;2442;48.676;7.986;2023-12-22T07:58:35;9.50;99.90
4856;DHT22;2442;48.676;7.986;2023-12-22T08:01:04;9.50;99.90
4856;DHT22;2442;48.676;7.986;2023-12-22T08:03:32;9.50;99.90
4856;DHT22;2442;48.676;7.986;2023-12-22T08:05:58;9.50;99.90
4856;DHT22;2442;48.676;7.986;2023-12-22T08:08:25;9.50;99.90
4856;DHT22;2442;48.676;7.986;2023-12-22T08:10:52;9.50;99.90
4856;DHT22;2442;48.676;7.986;2023-12-22T08:13:18;9.50;99.90
4856;DHT22;2442;48.676;7.986;2023-12-22T08:15:45;9.50;99.90
4856;DHT22;2442;48.676;7.986;2023-12-22T08:18:13;9.50;99.90
4856;DHT22;2442;48.676;7.986;2023-12-22T08:20:40;9.50;99.90
4856;DHT22;2442;48.676;7.986;2023-12-22T08:23:07;9.50;99.90
4856;DHT22;2442;48.676;7.986;2023-12-22T08:25:33;9.40;99.90
4856;DHT22;2442;48.676;7.986;2023-12-22T08:28:00;9.50;99.90
4856;DHT22;2442;48.676;7.986;2023-12-22T08:30:27;9.50;99.90
4856;DHT22;2442;48.676;7.986;2023-12-22T08:32:54;9.40;99.90
4856;DHT22;2442;48.676;7.986;2023-12-22T08:35:22;9.40;99.90
4856;DHT22;2442;48.676;7.986;2023-12-22T08:37:49;9.40;99.90
4856;DHT22;2442;48.676;7.986;2023-12-22T08:40:15;9.40;99.90
4856;DHT22;2442;48.676;7.986;2023-12-22T08:42:42;9.50;99.90
4856;DHT22;2442;48.676;7.986;2023-12-22T08:45:09;9.40;99.90
4856;DHT22;2442;48.676;7.986;2023-12-22T08:47:36;9.40;99.90
4856;DHT22;2442;48.676;7.986;2023-12-22T08:50:02;9.40;99.90
4856;DHT22;2442;48.676;7.986;2023-12-22T08:52:34;9.50;99.90
4856;DHT22;2442;48.676;7.986;2023-12-22T08:55:01;9.50;99.90
4856;DHT22;2442;48.676;7.986;2023-12-22T08:57:27;9.50;99.90
4856;DHT22;2442;48.676;7.986;2023-12-22T08:59:54;9.50;99.90
4856;DHT22;2442;48.676;7.986;2023-12-22T09:02:21;9.60;99.90
4856;DHT22;2442;48.676;7.986;2023-12-22T09:04:47;9.50;99.90
4856;DHT22;2442;48.676;7.986;2023-12-22T09:07:14;9.60;99.90
4856;DHT22;2442;48.676;7.986;2023-12-22T09:09:42;9.60;99.90
4856;DHT22;2442;48.676;7.986;2023-12-22T09:12:08;9.60;99.90
4856;DHT22;2442;48.676;7.986;2023-12-22T09:14:35;9.60;99.90
4856;DHT22;2442;48.676;7.986;2023-12-22T09:19:29;9.50;99.90
4856;DHT22;2442;48.676;7.986;2023-12-22T09:21:58;9.60;99.90
4856;DHT22;2442;48.676;7.986;2023-12-22T09:24:24;9.60;99.90
4856;DHT22;2442;48.676;7.986;2023-12-22T09:26:52;9.60;99.90
4856;DHT22;2442;48.676;7.986;2023-12-22T09:29:19;9.60;99.90
4856;DHT22;2442;48.676;7.986;2023-12-22T09:31:47;9.60;99.90
4856;DHT22;2442;48.676;7.986;2023-12-22T09:34:14;9.60;99.90
4856;DHT22;2442;48.676;7.986;2023-12-22T09:36:40;9.50;99.90
4856;DHT22;2442;48.676;7.986;2023-12-22T09:39:07;9.40;99.90
4856;DHT22;2442;48.676;7.986;2023-12-22T09:41:34;9.30;99.90
4856;DHT22;2442;48.676;7.986;2023-12-22T09:44:02;9.10;99.90
4856;DHT22;2442;48.676;7.986;2023-12-22T09:46:30;8.90;99.90
4856;DHT22;2442;48.676;7.986;2023-12-22T09:48:57;8.80;99.90
4856;DHT22;2442;48.676;7.986;2023-12-22T09:51:24;8.80;99.90
4856;DHT22;2442;48.676;7.986;2023-12-22T09:53:50;8.70;99.90
4856;DHT22;2442;48.676;7.986;2023-12-22T09:56:18;8.70;99.90
4856;DHT22;2442;48.676;7.986;2023-12-22T09:58:45;8.90;99.90
4856;DHT22;2442;48.676;7.986;2023-12-22T10:01:13;9.00;99.90
4856;DHT22;2442;48.676;7.986;2023-12-22T10:03:40;9.00;99.90
4856;DHT22;2442;48.676;7.986;2023-12-22T10:06:08;9.10;99.90
4856;DHT22;2442;48.676;7.986;2023-12-22T10:08:35;9.00;99.90
4856;DHT22;2442;48.676;7.986;2023-12-22T10:11:01;9.00;99.90
4856;DHT22;2442;48.676;7.986;2023-12-22T10:13:30;8.90;99.90
4856;DHT22;2442;48.676;7.986;2023-12-22T10:15:57;8.80;99.90
4856;DHT22;2442;48.676;7.986;2023-12-22T10:18:25;9.00;99.90
4856;DHT22;2442;48.676;7.986;2023-12-22T10:20:52;9.00;99.90
4856;DHT22;2442;48.676;7.986;2023-12-22T10:23:19;9.00;99.90
4856;DHT22;2442;48.676;7.986;2023-12-22T10:25:45;8.90;99.90
4856;DHT22;2442;48.676;7.986;2023-12-22T10:28:12;8.90;99.90
4856;DHT22;2442;48.676;7.986;2023-12-22T10:30:39;8.90;99.90
4856;DHT22;2442;48.676;7.986;2023-12-22T10:33:06;8.90;99.90
4856;DHT22;2442;48.676;7.986;2023-12-22T10:35:34;9.00;99.90
4856;DHT22;2442;48.676;7.986;2023-12-22T10:38:01;9.00;99.90
4856;DHT22;2442;48.676;7.986;2023-12-22T10:40:28;9.00;99.90
4856;DHT22;2442;48.676;7.986;2023-12-22T10:42:55;9.10;99.90
4856;DHT22;2442;48.676;7.986;2023-12-22T10:45:22;9.10;99.90
4856;DHT22;2442;48.676;7.986;2023-12-22T10:47:50;9.10;99.90
4856;DHT22;2442;48.676;7.986;2023-12-22T10:50:18;9.10;99.90
4856;DHT22;2442;48.676;7.986;2023-12-22T10:52:50;9.10;99.90
4856;DHT22;2442;48.676;7.986;2023-12-22T10:55:17;9.10;99.90
4856;DHT22;2442;48.676;7.986;2023-12-22T11:02:37;8.80;99.90
4856;DHT22;2442;48.676;7.986;2023-12-22T19:23:01;9.20;99.90
4856;DHT22;2442;48.676;7.986;2023-12-22T19:37:43;9.30;99.90
4856;DHT22;2442;48.676;7.986;2023-12-22T19:40:11;9.30;99.90
4856;DHT22;2442;48.676;7.986;2023-12-22T19:42:38;9.40;99.90
4856;DHT22;2442;48.676;7.986;2023-12-22T19:45:05;9.30;99.90
4856;DHT22;2442;48.676;7.986;2023-12-22T19:47:32;9.30;99.90
4856;DHT22;2442;48.676;7.986;2023-12-22T19:49:59;9.30;99.90
4856;DHT22;2442;48.676;7.986;2023-12-22T19:52:26;9.40;99.90
4856;DHT22;2442;48.676;7.986;2023-12-22T19:54:55;9.40;99.90
4856;DHT22;2442;48.676;7.986;2023-12-22T19:57:23;9.50;99.90
4856;DHT22;2442;48.676;7.986;2023-12-22T19:59:49;9.60;99.90
4856;DHT22;2442;48.676;7.986;2023-12-22T20:02:16;9.50;99.90
4856;DHT22;2442;48.676;7.986;2023-12-22T20:04:43;9.50;99.90
4856;DHT22;2442;48.676;7.986;2023-12-22T20:07:10;9.50;99.90
4856;DHT22;2442;48.676;7.986;2023-12-22T20:09:36;9.50;99.90
4856;DHT22;2442;48.676;7.986;2023-12-22T20:12:05;9.50;99.90
4856;DHT22;2442;48.676;7.986;2023-12-22T20:14:33;9.50;99.90
4856;DHT22;2442;48.676;7.986;2023-12-22T20:17:01;9.50;99.90
4856;DHT22;2442;48.676;7.986;2023-12-22T20:19:28;9.60;99.90
4856;DHT22;2442;48.676;7.986;2023-12-22T20:21:55;9.60;99.90
4856;DHT22;2442;48.676;7.986;2023-12-22T20:24:22;9.60;99.90
4856;DHT22;2442;48.676;7.986;2023-12-22T20:26:49;9.60;99.90
4856;DHT22;2442;48.676;7.986;2023-12-22T20:29:15;9.60;99.90
4856;DHT22;2442;48.676;7.986;2023-12-22T20:31:43;9.80;99.90
4856;DHT22;2442;48.676;7.986;2023-12-22T20:34:10;9.70;99.90
4856;DHT22;2442;48.676;7.986;2023-12-22T20:36:37;9.70;99.90
4856;DHT22;2442;48.676;7.986;2023-12-22T20:39:04;9.80;99.90
4856;DHT22;2442;48.676;7.986;2023-12-22T20:41:31;9.70;99.90
4856;DHT22;2442;48.676;7.986;2023-12-22T20:43:58;9.70;99.90
4856;DHT22;2442;48.676;7.986;2023-12-22T20:46:25;9.70;99.90
4856;DHT22;2442;48.676;7.986;2023-12-22T20:48:53;9.80;99.90
4856;DHT22;2442;48.676;7.986;2023-12-22T20:51:20;9.80;99.90
4856;DHT22;2442;48.676;7.986;2023-12-22T20:53:46;9.70;99.90
4856;DHT22;2442;48.676;7.986;2023-12-22T20:56:16;9.70;99.90
4856;DHT22;2442;48.676;7.986;2023-12-22T20:58:44;9.80;99.90
4856;DHT22;2442;48.676;7.986;2023-12-22T21:01:11;9.70;99.90
4856;DHT22;2442;48.676;7.986;2023-12-22T21:03:37;9.80;99.90
4856;DHT22;2442;48.676;7.986;2023-12-22T21:06:06;9.80;99.90
4856;DHT22;2442;48.676;7.986;2023-12-22T21:08:32;9.80;99.90
4856;DHT22;2442;48.676;7.986;2023-12-22T21:10:59;9.80;99.90
4856;DHT22;2442;48.676;7.986;2023-12-22T21:13:28;9.80;99.90
4856;DHT22;2442;48.676;7.986;2023-12-22T21:15:56;9.90;99.90
4856;DHT22;2442;48.676;7.986;2023-12-22T21:18:22;9.90;99.90
4856;DHT22;2442;48.676;7.986;2023-12-22T21:20:49;9.70;99.90
4856;DHT22;2442;48.676;7.986;2023-12-22T21:23:17;9.70;99.90
4856;DHT22;2442;48.676;7.986;2023-12-22T21:25:44;9.60;99.90
4856;DHT22;2442;48.676;7.986;2023-12-22T21:28:11;9.60;99.90
4856;DHT22;2442;48.676;7.986;2023-12-22T21:30:38;9.70;99.90
4856;DHT22;2442;48.676;7.986;2023-12-22T21:33:04;9.70;99.90
4856;DHT22;2442;48.676;7.986;2023-12-22T21:35:31;9.70;99.90
4856;DHT22;2442;48.676;7.986;2023-12-22T21:37:58;9.60;99.90
4856;DHT22;2442;48.676;7.986;2023-12-22T21:40:26;9.70;99.90
4856;DHT22;2442;48.676;7.986;2023-12-22T21:42:53;9.60;99.90
4856;DHT22;2442;48.676;7.986;2023-12-22T21:45:21;9.70;99.90
4856;DHT22;2442;48.676;7.986;2023-12-22T21:47:47;9.70;99.90
4856;DHT22;2442;48.676;7.986;2023-12-22T21:50:14;9.70;99.90
4856;DHT22;2442;48.676;7.986;2023-12-22T21:52:40;9.60;99.90
4856;DHT22;2442;48.676;7.986;2023-12-22T21:55:07;9.70;99.90
4856;DHT22;2442;48.676;7.986;2023-12-22T21:57:35;9.70;99.90
4856;DHT22;2442;48.676;7.986;2023-12-22T22:00:02;9.70;99.90
4856;DHT22;2442;48.676;7.986;2023-12-22T22:02:31;9.70;99.90
4856;DHT22;2442;48.676;7.986;2023-12-22T22:04:58;9.80;99.90
4856;DHT22;2442;48.676;7.986;2023-12-22T22:07:25;9.80;99.90
4856;DHT22;2442;48.676;7.986;2023-12-22T22:09:51;9.80;99.90
4856;DHT22;2442;48.676;7.986;2023-12-22T22:12:18;9.90;99.90
4856;DHT22;2442;48.676;7.986;2023-12-22T22:14:46;9.90;99.90
4856;DHT22;2442;48.676;7.986;2023-12-22T22:17:13;10.00;99.90
4856;DHT22;2442;48.676;7.986;2023-12-22T22:19:39;9.90;99.90
4856;DHT22;2442;48.676;7.986;2023-12-22T22:22:06;10.00;99.90
4856;DHT22;2442;48.676;7.986;2023-12-22T22:24:33;10.00;99.90
4856;DHT22;2442;48.676;7.986;2023-12-22T22:27:00;10.00;99.90
4856;DHT22;2442;48.676;7.986;2023-12-22T22:29:26;10.00;99.90
4856;DHT22;2442;48.676;7.986;2023-12-22T22:31:54;10.10;99.90
4856;DHT22;2442;48.676;7.986;2023-12-22T22:34:22;10.00;99.90
4856;DHT22;2442;48.676;7.986;2023-12-22T22:36:49;10.00;99.90
4856;DHT22;2442;48.676;7.986;2023-12-22T22:39:15;10.00;99.90
4856;DHT22;2442;48.676;7.986;2023-12-22T22:41:43;10.00;99.90
4856;DHT22;2442;48.676;7.986;2023-12-22T22:44:11;10.00;99.90
4856;DHT22;2442;48.676;7.986;2023-12-22T22:46:38;10.00;99.90
4856;DHT22;2442;48.676;7.986;2023-12-22T22:49:06;10.00;99.90
4856;DHT22;2442;48.676;7.986;2023-12-22T22:51:32;10.00;99.90
4856;DHT22;2442;48.676;7.986;2023-12-22T22:53:59;9.90;99.90
4856;DHT22;2442;48.676;7.986;2023-12-22T22:56:26;10.00;99.90
4856;DHT22;2442;48.676;7.986;2023-12-22T22:58:52;10.00;99.90
4856;DHT22;2442;48.676;7.986;2023-12-22T23:01:19;10.00;99.90
4856;DHT22;2442;48.676;7.986;2023-12-22T23:03:45;9.90;99.90
4856;DHT22;2442;48.676;7.986;2023-12-22T23:06:14;10.00;99.90
4856;DHT22;2442;48.676;7.986;2023-12-22T23:08:41;10.00;99.90
4856;DHT22;2442;48.676;7.986;2023-12-22T23:11:08;10.10;99.90
4856;DHT22;2442;48.676;7.986;2023-12-22T23:13:34;10.00;99.90
4856;DHT22;2442;48.676;7.986;2023-12-22T23:16:01;10.00;99.90
4856;DHT22;2442;48.676;7.986;2023-12-22T23:18:29;10.00;99.90
4856;DHT22;2442;48.676;7.986;2023-12-22T23:20:55;10.00;99.90
4856;DHT22;2442;48.676;7.986;2023-12-22T23:23:24;10.00;99.90
4856;DHT22;2442;48.676;7.986;2023-12-22T23:25:50;10.00;99.90
4856;DHT22;2442;48.676;7.986;2023-12-22T23:28:17;10.00;99.90
4856;DHT22;2442;48.676;7.986;2023-12-22T23:30:44;10.00;99.90
4856;DHT22;2442;48.676;7.986;2023-12-22T23:33:11;10.00;99.90
4856;DHT22;2442;48.676;7.986;2023-12-22T23:35:38;9.90;99.90
4856;DHT22;2442;48.676;7.986;2023-12-22T23:38:05;9.90;99.90
4856;DHT22;2442;48.676;7.986;2023-12-22T23:40:33;9.90;99.90
4856;DHT22;2442;48.676;7.986;2023-12-22T23:42:59;9.90;99.90
4856;DHT22;2442;48.676;7.986;2023-12-22T23:45:26;9.90;99.90
4856;DHT22;2442;48.676;7.986;2023-12-22T23:47:53;9.80;99.90
4856;DHT22;2442;48.676;7.986;2023-12-22T23:50:19;9.90;99.90
4856;DHT22;2442;48.676;7.986;2023-12-22T23:52:46;9.90;99.90
4856;DHT22;2442;48.676;7.986;2023-12-22T23:55:13;9.90;99.90
4856;DHT22;2442;48.676;7.986;2023-12-22T23:57:41;9.90;99.90
